sensor_id;sensor_type;location;lat;lon;timestamp;P1;durP1;ratioP1;P2;durP2;ratioP2
19828;SDS011;10075;50.924;4.396;2023-03-30T00:02:26;5.65;;;2.13;;
19828;SDS011;10075;50.924;4.396;2023-03-30T00:04:56;8.13;;;2.00;;
19828;SDS011;10075;50.924;4.396;2023-03-30T00:07:29;5.65;;;1.98;;
19828;SDS011;10075;50.924;4.396;2023-03-30T00:09:56;6.80;;;2.10;;
19828;SDS011;10075;50.924;4.396;2023-03-30T00:12:26;6.22;;;2.10;;
19828;SDS011;10075;50.924;4.396;2023-03-30T00:14:54;7.50;;;1.90;;
19828;SDS011;10075;50.924;4.396;2023-03-30T00:17:21;7.95;;;2.00;;
19828;SDS011;10075;50.924;4.396;2023-03-30T00:19:49;7.85;;;2.10;;
19828;SDS011;10075;50.924;4.396;2023-03-30T00:22:16;6.82;;;1.60;;
19828;SDS011;10075;50.924;4.396;2023-03-30T00:24:43;3.53;;;1.70;;
19828;SDS011;10075;50.924;4.396;2023-03-30T00:27:10;5.95;;;1.92;;
19828;SDS011;10075;50.924;4.396;2023-03-30T00:29:37;6.10;;;1.55;;
19828;SDS011;10075;50.924;4.396;2023-03-30T00:32:04;3.20;;;1.30;;
19828;SDS011;10075;50.924;4.396;2023-03-30T00:34:31;6.65;;;1.83;;
19828;SDS011;10075;50.924;4.396;2023-03-30T00:37:00;7.28;;;1.48;;
19828;SDS011;10075;50.924;4.396;2023-03-30T00:39:28;3.70;;;1.65;;
19828;SDS011;10075;50.924;4.396;2023-03-30T00:41:55;5.75;;;1.63;;
19828;SDS011;10075;50.924;4.396;2023-03-30T00:47:21;3.85;;;1.58;;
19828;SDS011;10075;50.924;4.396;2023-03-30T00:49:49;5.30;;;1.23;;
19828;SDS011;10075;50.924;4.396;2023-03-30T00:52:18;3.03;;;1.50;;
19828;SDS011;10075;50.924;4.396;2023-03-30T00:54:49;5.53;;;1.38;;
19828;SDS011;10075;50.924;4.396;2023-03-30T00:57:18;5.15;;;1.55;;
19828;SDS011;10075;50.924;4.396;2023-03-30T00:59:47;5.50;;;1.40;;
19828;SDS011;10075;50.924;4.396;2023-03-30T01:02:16;4.10;;;1.67;;
19828;SDS011;10075;50.924;4.396;2023-03-30T01:04:45;5.28;;;1.70;;
19828;SDS011;10075;50.924;4.396;2023-03-30T01:07:14;4.60;;;1.50;;
19828;SDS011;10075;50.924;4.396;2023-03-30T01:09:44;5.05;;;1.70;;
19828;SDS011;10075;50.924;4.396;2023-03-30T01:12:12;7.00;;;1.75;;
19828;SDS011;10075;50.924;4.396;2023-03-30T01:14:39;5.07;;;1.55;;
19828;SDS011;10075;50.924;4.396;2023-03-30T01:17:08;4.40;;;1.30;;
19828;SDS011;10075;50.924;4.396;2023-03-30T01:20:03;4.60;;;1.25;;
19828;SDS011;10075;50.924;4.396;2023-03-30T01:23:03;4.30;;;1.27;;
19828;SDS011;10075;50.924;4.396;2023-03-30T01:28:57;4.63;;;1.70;;
19828;SDS011;10075;50.924;4.396;2023-03-30T01:31:42;3.40;;;1.40;;
19828;SDS011;10075;50.924;4.396;2023-03-30T01:34:29;3.72;;;1.40;;
19828;SDS011;10075;50.924;4.396;2023-03-30T01:37:33;3.28;;;1.20;;
19828;SDS011;10075;50.924;4.396;2023-03-30T01:40:17;4.43;;;1.50;;
19828;SDS011;10075;50.924;4.396;2023-03-30T01:42:49;7.22;;;1.50;;
19828;SDS011;10075;50.924;4.396;2023-03-30T01:45:25;4.82;;;1.45;;
19828;SDS011;10075;50.924;4.396;2023-03-30T01:48:00;3.83;;;1.30;;
19828;SDS011;10075;50.924;4.396;2023-03-30T01:50:36;10.52;;;1.55;;
19828;SDS011;10075;50.924;4.396;2023-03-30T01:53:07;3.78;;;1.25;;
19828;SDS011;10075;50.924;4.396;2023-03-30T01:55:41;6.35;;;1.85;;
19828;SDS011;10075;50.924;4.396;2023-03-30T01:58:13;4.40;;;1.55;;
19828;SDS011;10075;50.924;4.396;2023-03-30T02:00:45;3.78;;;1.30;;
19828;SDS011;10075;50.924;4.396;2023-03-30T02:03:15;2.63;;;1.35;;
19828;SDS011;10075;50.924;4.396;2023-03-30T02:05:47;6.82;;;1.30;;
19828;SDS011;10075;50.924;4.396;2023-03-30T02:08:19;5.85;;;1.40;;
19828;SDS011;10075;50.924;4.396;2023-03-30T02:10:51;4.70;;;1.52;;
19828;SDS011;10075;50.924;4.396;2023-03-30T02:13:21;4.63;;;1.67;;
19828;SDS011;10075;50.924;4.396;2023-03-30T02:15:52;4.97;;;1.40;;
19828;SDS011;10075;50.924;4.396;2023-03-30T02:18:21;6.68;;;1.63;;
19828;SDS011;10075;50.924;4.396;2023-03-30T02:20:48;3.00;;;1.48;;
19828;SDS011;10075;50.924;4.396;2023-03-30T02:23:16;7.32;;;2.03;;
19828;SDS011;10075;50.924;4.396;2023-03-30T02:25:46;2.45;;;1.40;;
19828;SDS011;10075;50.924;4.396;2023-03-30T02:28:14;7.53;;;1.70;;
19828;SDS011;10075;50.924;4.396;2023-03-30T02:30:42;4.70;;;1.67;;
19828;SDS011;10075;50.924;4.396;2023-03-30T02:33:13;6.65;;;1.77;;
19828;SDS011;10075;50.924;4.396;2023-03-30T02:35:55;4.47;;;1.65;;
19828;SDS011;10075;50.924;4.396;2023-03-30T02:41:40;4.55;;;1.77;;
19828;SDS011;10075;50.924;4.396;2023-03-30T02:44:31;5.63;;;1.20;;
19828;SDS011;10075;50.924;4.396;2023-03-30T02:47:10;5.35;;;1.58;;
19828;SDS011;10075;50.924;4.396;2023-03-30T02:49:45;9.48;;;1.50;;
19828;SDS011;10075;50.924;4.396;2023-03-30T02:52:29;11.40;;;1.40;;
19828;SDS011;10075;50.924;4.396;2023-03-30T02:55:12;5.80;;;1.40;;
19828;SDS011;10075;50.924;4.396;2023-03-30T02:57:47;4.28;;;1.33;;
19828;SDS011;10075;50.924;4.396;2023-03-30T03:00:29;5.18;;;1.30;;
19828;SDS011;10075;50.924;4.396;2023-03-30T03:03:03;5.07;;;1.40;;
19828;SDS011;10075;50.924;4.396;2023-03-30T03:05:35;5.72;;;1.70;;
19828;SDS011;10075;50.924;4.396;2023-03-30T03:08:02;6.80;;;1.73;;
19828;SDS011;10075;50.924;4.396;2023-03-30T03:10:30;6.07;;;1.42;;
19828;SDS011;10075;50.924;4.396;2023-03-30T03:13:00;3.50;;;1.42;;
19828;SDS011;10075;50.924;4.396;2023-03-30T03:15:28;4.78;;;1.77;;
19828;SDS011;10075;50.924;4.396;2023-03-30T03:17:56;5.32;;;1.60;;
19828;SDS011;10075;50.924;4.396;2023-03-30T03:20:25;5.80;;;1.30;;
19828;SDS011;10075;50.924;4.396;2023-03-30T03:22:54;5.35;;;1.65;;
19828;SDS011;10075;50.924;4.396;2023-03-30T03:25:21;4.88;;;1.52;;
19828;SDS011;10075;50.924;4.396;2023-03-30T03:27:48;5.85;;;1.60;;
19828;SDS011;10075;50.924;4.396;2023-03-30T03:30:15;3.78;;;1.20;;
19828;SDS011;10075;50.924;4.396;2023-03-30T03:32:43;4.57;;;1.38;;
19828;SDS011;10075;50.924;4.396;2023-03-30T03:35:11;6.85;;;1.35;;
19828;SDS011;10075;50.924;4.396;2023-03-30T03:37:38;3.15;;;1.10;;
19828;SDS011;10075;50.924;4.396;2023-03-30T03:40:05;3.38;;;1.52;;
19828;SDS011;10075;50.924;4.396;2023-03-30T03:42:33;6.18;;;1.98;;
19828;SDS011;10075;50.924;4.396;2023-03-30T03:45:00;5.05;;;1.40;;
19828;SDS011;10075;50.924;4.396;2023-03-30T03:47:27;6.60;;;1.58;;
19828;SDS011;10075;50.924;4.396;2023-03-30T03:49:56;6.20;;;1.40;;
19828;SDS011;10075;50.924;4.396;2023-03-30T03:52:22;6.60;;;1.67;;
19828;SDS011;10075;50.924;4.396;2023-03-30T03:54:49;5.68;;;1.67;;
19828;SDS011;10075;50.924;4.396;2023-03-30T03:57:16;6.63;;;1.75;;
19828;SDS011;10075;50.924;4.396;2023-03-30T03:59:43;4.55;;;1.38;;
19828;SDS011;10075;50.924;4.396;2023-03-30T04:02:10;4.90;;;1.55;;
19828;SDS011;10075;50.924;4.396;2023-03-30T04:04:37;5.07;;;1.70;;
19828;SDS011;10075;50.924;4.396;2023-03-30T04:07:06;2.53;;;1.33;;
19828;SDS011;10075;50.924;4.396;2023-03-30T04:09:33;5.10;;;1.58;;
19828;SDS011;10075;50.924;4.396;2023-03-30T04:12:00;6.07;;;1.40;;
19828;SDS011;10075;50.924;4.396;2023-03-30T04:14:27;5.88;;;1.52;;
19828;SDS011;10075;50.924;4.396;2023-03-30T04:16:54;4.28;;;1.48;;
19828;SDS011;10075;50.924;4.396;2023-03-30T04:19:22;6.65;;;1.45;;
19828;SDS011;10075;50.924;4.396;2023-03-30T04:21:49;4.10;;;1.30;;
19828;SDS011;10075;50.924;4.396;2023-03-30T04:24:18;6.47;;;1.63;;
19828;SDS011;10075;50.924;4.396;2023-03-30T04:26:46;5.00;;;1.77;;
19828;SDS011;10075;50.924;4.396;2023-03-30T04:29:14;5.72;;;1.60;;
19828;SDS011;10075;50.924;4.396;2023-03-30T04:31:42;5.75;;;1.33;;
19828;SDS011;10075;50.924;4.396;2023-03-30T04:34:11;7.22;;;1.73;;
19828;SDS011;10075;50.924;4.396;2023-03-30T04:36:38;3.50;;;1.30;;
19828;SDS011;10075;50.924;4.396;2023-03-30T04:39:07;4.75;;;1.45;;
19828;SDS011;10075;50.924;4.396;2023-03-30T04:41:36;2.80;;;1.27;;
19828;SDS011;10075;50.924;4.396;2023-03-30T04:44:06;3.13;;;1.23;;
19828;SDS011;10075;50.924;4.396;2023-03-30T04:46:35;7.25;;;1.48;;
19828;SDS011;10075;50.924;4.396;2023-03-30T04:49:02;5.10;;;1.45;;
19828;SDS011;10075;50.924;4.396;2023-03-30T04:51:30;3.88;;;1.40;;
19828;SDS011;10075;50.924;4.396;2023-03-30T04:53:57;4.55;;;1.65;;
19828;SDS011;10075;50.924;4.396;2023-03-30T04:56:24;4.95;;;1.60;;
19828;SDS011;10075;50.924;4.396;2023-03-30T04:58:55;4.20;;;1.33;;
19828;SDS011;10075;50.924;4.396;2023-03-30T05:01:22;5.22;;;1.67;;
19828;SDS011;10075;50.924;4.396;2023-03-30T05:03:49;8.85;;;1.73;;
19828;SDS011;10075;50.924;4.396;2023-03-30T05:06:16;8.63;;;1.92;;
19828;SDS011;10075;50.924;4.396;2023-03-30T05:08:43;4.70;;;1.90;;
19828;SDS011;10075;50.924;4.396;2023-03-30T05:11:10;7.70;;;1.80;;
19828;SDS011;10075;50.924;4.396;2023-03-30T05:13:37;3.95;;;1.52;;
19828;SDS011;10075;50.924;4.396;2023-03-30T05:16:07;6.35;;;1.85;;
19828;SDS011;10075;50.924;4.396;2023-03-30T05:18:35;4.07;;;1.70;;
19828;SDS011;10075;50.924;4.396;2023-03-30T05:21:02;4.25;;;1.70;;
19828;SDS011;10075;50.924;4.396;2023-03-30T05:23:30;5.25;;;1.67;;
19828;SDS011;10075;50.924;4.396;2023-03-30T05:25:57;9.52;;;2.25;;
19828;SDS011;10075;50.924;4.396;2023-03-30T05:28:24;5.68;;;1.92;;
19828;SDS011;10075;50.924;4.396;2023-03-30T05:30:54;2.90;;;1.55;;
19828;SDS011;10075;50.924;4.396;2023-03-30T05:33:22;7.90;;;1.73;;
19828;SDS011;10075;50.924;4.396;2023-03-30T05:35:49;7.95;;;1.70;;
19828;SDS011;10075;50.924;4.396;2023-03-30T05:38:17;8.90;;;1.77;;
19828;SDS011;10075;50.924;4.396;2023-03-30T05:40:44;7.53;;;1.48;;
19828;SDS011;10075;50.924;4.396;2023-03-30T05:43:11;9.10;;;1.80;;
19828;SDS011;10075;50.924;4.396;2023-03-30T05:45:38;6.10;;;1.70;;
19828;SDS011;10075;50.924;4.396;2023-03-30T05:48:08;6.85;;;1.70;;
19828;SDS011;10075;50.924;4.396;2023-03-30T05:50:36;11.75;;;1.75;;
19828;SDS011;10075;50.924;4.396;2023-03-30T05:53:03;4.93;;;1.40;;
19828;SDS011;10075;50.924;4.396;2023-03-30T05:55:30;10.30;;;2.17;;
19828;SDS011;10075;50.924;4.396;2023-03-30T05:57:57;6.55;;;1.70;;
19828;SDS011;10075;50.924;4.396;2023-03-30T06:00:25;10.10;;;2.53;;
19828;SDS011;10075;50.924;4.396;2023-03-30T06:02:52;5.32;;;1.77;;
19828;SDS011;10075;50.924;4.396;2023-03-30T06:05:20;13.88;;;1.88;;
19828;SDS011;10075;50.924;4.396;2023-03-30T06:07:48;8.45;;;2.03;;
19828;SDS011;10075;50.924;4.396;2023-03-30T06:10:15;17.00;;;2.35;;
19828;SDS011;10075;50.924;4.396;2023-03-30T06:12:42;11.75;;;1.98;;
19828;SDS011;10075;50.924;4.396;2023-03-30T06:15:10;10.35;;;2.50;;
19828;SDS011;10075;50.924;4.396;2023-03-30T06:17:37;11.45;;;2.13;;
19828;SDS011;10075;50.924;4.396;2023-03-30T06:20:05;10.77;;;2.22;;
19828;SDS011;10075;50.924;4.396;2023-03-30T06:22:36;8.18;;;1.98;;
19828;SDS011;10075;50.924;4.396;2023-03-30T06:25:05;6.95;;;1.80;;
19828;SDS011;10075;50.924;4.396;2023-03-30T06:27:34;11.38;;;2.20;;
19828;SDS011;10075;50.924;4.396;2023-03-30T06:30:01;12.88;;;1.95;;
19828;SDS011;10075;50.924;4.396;2023-03-30T06:32:29;10.13;;;2.40;;
19828;SDS011;10075;50.924;4.396;2023-03-30T06:34:56;10.52;;;2.42;;
19828;SDS011;10075;50.924;4.396;2023-03-30T06:37:23;7.57;;;2.15;;
19828;SDS011;10075;50.924;4.396;2023-03-30T06:39:50;6.50;;;1.60;;
19828;SDS011;10075;50.924;4.396;2023-03-30T06:42:19;6.40;;;2.20;;
19828;SDS011;10075;50.924;4.396;2023-03-30T06:44:46;10.18;;;1.92;;
19828;SDS011;10075;50.924;4.396;2023-03-30T06:47:12;9.68;;;2.40;;
19828;SDS011;10075;50.924;4.396;2023-03-30T06:49:40;9.38;;;2.33;;
19828;SDS011;10075;50.924;4.396;2023-03-30T06:52:07;14.43;;;2.38;;
19828;SDS011;10075;50.924;4.396;2023-03-30T06:54:34;10.32;;;2.22;;
19828;SDS011;10075;50.924;4.396;2023-03-30T06:57:00;8.77;;;1.95;;
19828;SDS011;10075;50.924;4.396;2023-03-30T06:59:29;12.13;;;2.33;;
19828;SDS011;10075;50.924;4.396;2023-03-30T07:01:57;11.13;;;2.67;;
19828;SDS011;10075;50.924;4.396;2023-03-30T07:04:24;6.95;;;2.10;;
19828;SDS011;10075;50.924;4.396;2023-03-30T07:06:51;11.00;;;2.95;;
19828;SDS011;10075;50.924;4.396;2023-03-30T07:09:21;10.57;;;2.60;;
19828;SDS011;10075;50.924;4.396;2023-03-30T07:11:48;9.88;;;2.55;;
19828;SDS011;10075;50.924;4.396;2023-03-30T07:14:15;9.90;;;2.10;;
19828;SDS011;10075;50.924;4.396;2023-03-30T07:16:44;12.93;;;2.67;;
19828;SDS011;10075;50.924;4.396;2023-03-30T07:19:12;13.32;;;2.95;;
19828;SDS011;10075;50.924;4.396;2023-03-30T07:21:39;15.48;;;2.63;;
19828;SDS011;10075;50.924;4.396;2023-03-30T07:24:06;11.30;;;2.35;;
19828;SDS011;10075;50.924;4.396;2023-03-30T07:26:33;10.15;;;2.50;;
19828;SDS011;10075;50.924;4.396;2023-03-30T07:29:01;12.45;;;2.10;;
19828;SDS011;10075;50.924;4.396;2023-03-30T07:31:29;14.48;;;2.60;;
19828;SDS011;10075;50.924;4.396;2023-03-30T07:33:57;17.77;;;3.03;;
19828;SDS011;10075;50.924;4.396;2023-03-30T07:36:25;10.40;;;2.88;;
19828;SDS011;10075;50.924;4.396;2023-03-30T07:38:52;13.70;;;2.95;;
19828;SDS011;10075;50.924;4.396;2023-03-30T07:41:19;17.20;;;2.57;;
19828;SDS011;10075;50.924;4.396;2023-03-30T07:43:46;15.77;;;2.55;;
19828;SDS011;10075;50.924;4.396;2023-03-30T07:46:13;13.00;;;2.37;;
19828;SDS011;10075;50.924;4.396;2023-03-30T07:48:40;15.13;;;2.40;;
19828;SDS011;10075;50.924;4.396;2023-03-30T07:51:09;16.85;;;2.90;;
19828;SDS011;10075;50.924;4.396;2023-03-30T07:53:38;12.15;;;2.83;;
19828;SDS011;10075;50.924;4.396;2023-03-30T07:56:06;14.73;;;2.85;;
19828;SDS011;10075;50.924;4.396;2023-03-30T07:58:33;19.00;;;3.20;;
19828;SDS011;10075;50.924;4.396;2023-03-30T08:01:01;16.67;;;4.47;;
19828;SDS011;10075;50.924;4.396;2023-03-30T08:03:28;10.35;;;2.60;;
19828;SDS011;10075;50.924;4.396;2023-03-30T08:05:57;20.70;;;3.63;;
19828;SDS011;10075;50.924;4.396;2023-03-30T08:08:29;18.10;;;3.08;;
19828;SDS011;10075;50.924;4.396;2023-03-30T08:10:57;19.92;;;3.70;;
19828;SDS011;10075;50.924;4.396;2023-03-30T08:13:24;12.43;;;2.77;;
19828;SDS011;10075;50.924;4.396;2023-03-30T08:15:52;14.77;;;2.67;;
19828;SDS011;10075;50.924;4.396;2023-03-30T08:18:19;15.57;;;3.22;;
19828;SDS011;10075;50.924;4.396;2023-03-30T08:20:48;13.82;;;2.47;;
19828;SDS011;10075;50.924;4.396;2023-03-30T08:23:17;12.23;;;2.72;;
19828;SDS011;10075;50.924;4.396;2023-03-30T08:25:46;9.70;;;2.58;;
19828;SDS011;10075;50.924;4.396;2023-03-30T08:28:16;13.00;;;2.95;;
19828;SDS011;10075;50.924;4.396;2023-03-30T08:30:44;10.68;;;2.95;;
19828;SDS011;10075;50.924;4.396;2023-03-30T08:33:11;12.20;;;2.50;;
19828;SDS011;10075;50.924;4.396;2023-03-30T08:35:38;14.90;;;3.28;;
19828;SDS011;10075;50.924;4.396;2023-03-30T08:38:05;10.25;;;2.42;;
19828;SDS011;10075;50.924;4.396;2023-03-30T08:40:37;13.23;;;2.90;;
19828;SDS011;10075;50.924;4.396;2023-03-30T08:46:07;8.57;;;2.10;;
19828;SDS011;10075;50.924;4.396;2023-03-30T08:48:37;9.88;;;2.53;;
19828;SDS011;10075;50.924;4.396;2023-03-30T08:51:07;14.80;;;2.40;;
19828;SDS011;10075;50.924;4.396;2023-03-30T08:53:44;9.25;;;2.22;;
19828;SDS011;10075;50.924;4.396;2023-03-30T08:56:12;11.85;;;2.75;;
19828;SDS011;10075;50.924;4.396;2023-03-30T08:58:44;12.63;;;2.72;;
19828;SDS011;10075;50.924;4.396;2023-03-30T09:01:19;13.95;;;2.72;;
19828;SDS011;10075;50.924;4.396;2023-03-30T09:03:56;16.00;;;3.33;;
19828;SDS011;10075;50.924;4.396;2023-03-30T09:06:29;11.68;;;2.72;;
19828;SDS011;10075;50.924;4.396;2023-03-30T09:09:09;17.50;;;3.30;;
19828;SDS011;10075;50.924;4.396;2023-03-30T09:11:38;10.35;;;2.58;;
19828;SDS011;10075;50.924;4.396;2023-03-30T09:14:10;11.43;;;2.85;;
19828;SDS011;10075;50.924;4.396;2023-03-30T09:16:41;15.13;;;3.20;;
19828;SDS011;10075;50.924;4.396;2023-03-30T09:19:17;12.27;;;3.00;;
19828;SDS011;10075;50.924;4.396;2023-03-30T09:21:49;12.68;;;2.17;;
19828;SDS011;10075;50.924;4.396;2023-03-30T09:24:22;14.80;;;2.97;;
19828;SDS011;10075;50.924;4.396;2023-03-30T09:26:52;16.85;;;3.35;;
19828;SDS011;10075;50.924;4.396;2023-03-30T09:29:33;17.48;;;2.83;;
19828;SDS011;10075;50.924;4.396;2023-03-30T09:32:12;10.68;;;2.88;;
19828;SDS011;10075;50.924;4.396;2023-03-30T09:34:48;12.48;;;2.97;;
19828;SDS011;10075;50.924;4.396;2023-03-30T09:37:24;8.68;;;2.45;;
19828;SDS011;10075;50.924;4.396;2023-03-30T09:39:51;9.57;;;2.00;;
19828;SDS011;10075;50.924;4.396;2023-03-30T09:42:20;11.45;;;2.72;;
19828;SDS011;10075;50.924;4.396;2023-03-30T09:44:55;15.13;;;3.17;;
19828;SDS011;10075;50.924;4.396;2023-03-30T09:47:31;11.23;;;2.45;;
19828;SDS011;10075;50.924;4.396;2023-03-30T09:50:00;9.35;;;2.83;;
19828;SDS011;10075;50.924;4.396;2023-03-30T09:52:30;18.00;;;3.60;;
19828;SDS011;10075;50.924;4.396;2023-03-30T09:55:03;9.65;;;2.90;;
19828;SDS011;10075;50.924;4.396;2023-03-30T09:57:49;11.00;;;3.00;;
19828;SDS011;10075;50.924;4.396;2023-03-30T10:00:24;11.20;;;2.67;;
19828;SDS011;10075;50.924;4.396;2023-03-30T10:02:54;9.93;;;2.45;;
19828;SDS011;10075;50.924;4.396;2023-03-30T10:05:22;13.18;;;2.65;;
19828;SDS011;10075;50.924;4.396;2023-03-30T10:07:51;14.68;;;3.30;;
19828;SDS011;10075;50.924;4.396;2023-03-30T10:10:27;10.85;;;3.03;;
19828;SDS011;10075;50.924;4.396;2023-03-30T10:13:01;8.50;;;2.45;;
19828;SDS011;10075;50.924;4.396;2023-03-30T10:15:33;8.80;;;2.50;;
19828;SDS011;10075;50.924;4.396;2023-03-30T10:18:12;8.50;;;2.55;;
19828;SDS011;10075;50.924;4.396;2023-03-30T10:20:49;14.13;;;2.80;;
19828;SDS011;10075;50.924;4.396;2023-03-30T10:23:17;13.15;;;2.67;;
19828;SDS011;10075;50.924;4.396;2023-03-30T10:25:47;10.68;;;2.53;;
19828;SDS011;10075;50.924;4.396;2023-03-30T10:28:16;8.40;;;2.47;;
19828;SDS011;10075;50.924;4.396;2023-03-30T10:30:51;11.07;;;2.40;;
19828;SDS011;10075;50.924;4.396;2023-03-30T10:33:21;8.73;;;2.35;;
19828;SDS011;10075;50.924;4.396;2023-03-30T10:35:49;10.45;;;2.17;;
19828;SDS011;10075;50.924;4.396;2023-03-30T10:38:19;7.55;;;1.98;;
19828;SDS011;10075;50.924;4.396;2023-03-30T10:40:47;8.18;;;1.85;;
19828;SDS011;10075;50.924;4.396;2023-03-30T10:43:21;11.07;;;2.67;;
19828;SDS011;10075;50.924;4.396;2023-03-30T10:45:54;9.35;;;2.45;;
19828;SDS011;10075;50.924;4.396;2023-03-30T10:48:29;8.77;;;2.17;;
19828;SDS011;10075;50.924;4.396;2023-03-30T10:51:06;9.77;;;2.72;;
19828;SDS011;10075;50.924;4.396;2023-03-30T10:53:41;10.25;;;2.78;;
19828;SDS011;10075;50.924;4.396;2023-03-30T10:56:15;11.85;;;2.55;;
19828;SDS011;10075;50.924;4.396;2023-03-30T10:58:55;13.52;;;2.88;;
19828;SDS011;10075;50.924;4.396;2023-03-30T11:01:34;13.98;;;2.80;;
19828;SDS011;10075;50.924;4.396;2023-03-30T11:04:09;12.07;;;2.88;;
19828;SDS011;10075;50.924;4.396;2023-03-30T11:06:42;15.25;;;3.83;;
19828;SDS011;10075;50.924;4.396;2023-03-30T11:09:11;14.57;;;2.65;;
19828;SDS011;10075;50.924;4.396;2023-03-30T11:11:43;14.35;;;2.88;;
19828;SDS011;10075;50.924;4.396;2023-03-30T11:14:15;8.55;;;2.78;;
19828;SDS011;10075;50.924;4.396;2023-03-30T11:16:48;13.55;;;2.42;;
19828;SDS011;10075;50.924;4.396;2023-03-30T11:19:19;15.77;;;3.33;;
19828;SDS011;10075;50.924;4.396;2023-03-30T11:21:52;14.25;;;3.25;;
19828;SDS011;10075;50.924;4.396;2023-03-30T11:24:25;12.23;;;2.92;;
19828;SDS011;10075;50.924;4.396;2023-03-30T11:26:55;8.40;;;2.28;;
19828;SDS011;10075;50.924;4.396;2023-03-30T11:29:30;13.55;;;2.78;;
19828;SDS011;10075;50.924;4.396;2023-03-30T11:32:16;14.75;;;3.03;;
19828;SDS011;10075;50.924;4.396;2023-03-30T11:34:53;15.80;;;4.20;;
19828;SDS011;10075;50.924;4.396;2023-03-30T11:37:28;11.52;;;2.88;;
19828;SDS011;10075;50.924;4.396;2023-03-30T11:40:02;11.40;;;2.67;;
19828;SDS011;10075;50.924;4.396;2023-03-30T11:42:41;17.40;;;3.67;;
19828;SDS011;10075;50.924;4.396;2023-03-30T11:48:08;13.20;;;2.92;;
19828;SDS011;10075;50.924;4.396;2023-03-30T11:50:58;14.07;;;2.65;;
19828;SDS011;10075;50.924;4.396;2023-03-30T11:53:36;13.48;;;3.17;;
19828;SDS011;10075;50.924;4.396;2023-03-30T11:56:16;12.75;;;2.45;;
19828;SDS011;10075;50.924;4.396;2023-03-30T11:58:53;16.10;;;3.08;;
19828;SDS011;10075;50.924;4.396;2023-03-30T12:01:29;20.10;;;3.25;;
19828;SDS011;10075;50.924;4.396;2023-03-30T12:04:09;12.95;;;2.75;;
19828;SDS011;10075;50.924;4.396;2023-03-30T12:06:38;6.80;;;1.95;;
19828;SDS011;10075;50.924;4.396;2023-03-30T12:09:15;15.15;;;2.72;;
19828;SDS011;10075;50.924;4.396;2023-03-30T12:11:54;12.15;;;2.58;;
19828;SDS011;10075;50.924;4.396;2023-03-30T12:14:30;11.27;;;2.10;;
19828;SDS011;10075;50.924;4.396;2023-03-30T12:17:05;8.95;;;2.42;;
19828;SDS011;10075;50.924;4.396;2023-03-30T12:19:46;13.82;;;2.72;;
19828;SDS011;10075;50.924;4.396;2023-03-30T12:22:19;16.63;;;3.28;;
19828;SDS011;10075;50.924;4.396;2023-03-30T12:24:50;15.18;;;3.28;;
19828;SDS011;10075;50.924;4.396;2023-03-30T12:27:24;11.90;;;2.33;;
19828;SDS011;10075;50.924;4.396;2023-03-30T12:29:55;15.00;;;3.60;;
19828;SDS011;10075;50.924;4.396;2023-03-30T12:32:38;14.02;;;2.88;;
19828;SDS011;10075;50.924;4.396;2023-03-30T12:38:25;10.02;;;2.35;;
19828;SDS011;10075;50.924;4.396;2023-03-30T12:41:03;12.52;;;2.40;;
19828;SDS011;10075;50.924;4.396;2023-03-30T12:43:40;9.52;;;2.78;;
19828;SDS011;10075;50.924;4.396;2023-03-30T12:46:18;12.43;;;2.03;;
19828;SDS011;10075;50.924;4.396;2023-03-30T12:48:52;10.77;;;2.80;;
19828;SDS011;10075;50.924;4.396;2023-03-30T12:51:31;13.88;;;2.95;;
19828;SDS011;10075;50.924;4.396;2023-03-30T12:54:27;12.75;;;2.58;;
19828;SDS011;10075;50.924;4.396;2023-03-30T12:57:09;13.80;;;2.90;;
19828;SDS011;10075;50.924;4.396;2023-03-30T12:59:53;10.70;;;2.88;;
19828;SDS011;10075;50.924;4.396;2023-03-30T13:02:47;11.15;;;2.45;;
19828;SDS011;10075;50.924;4.396;2023-03-30T13:05:33;16.02;;;2.95;;
19828;SDS011;10075;50.924;4.396;2023-03-30T13:08:07;13.50;;;3.30;;
19828;SDS011;10075;50.924;4.396;2023-03-30T13:10:43;11.90;;;2.65;;
19828;SDS011;10075;50.924;4.396;2023-03-30T13:13:20;10.57;;;2.03;;
19828;SDS011;10075;50.924;4.396;2023-03-30T13:15:49;11.38;;;3.33;;
19828;SDS011;10075;50.924;4.396;2023-03-30T13:18:29;10.55;;;2.53;;
19828;SDS011;10075;50.924;4.396;2023-03-30T13:21:03;14.27;;;2.78;;
19828;SDS011;10075;50.924;4.396;2023-03-30T13:23:43;13.82;;;2.70;;
19828;SDS011;10075;50.924;4.396;2023-03-30T13:26:24;9.48;;;2.25;;
19828;SDS011;10075;50.924;4.396;2023-03-30T13:29:01;11.20;;;3.03;;
19828;SDS011;10075;50.924;4.396;2023-03-30T13:31:44;13.35;;;3.30;;
19828;SDS011;10075;50.924;4.396;2023-03-30T13:34:22;14.18;;;2.50;;
19828;SDS011;10075;50.924;4.396;2023-03-30T13:37:02;14.32;;;3.03;;
19828;SDS011;10075;50.924;4.396;2023-03-30T13:39:38;8.55;;;2.17;;
19828;SDS011;10075;50.924;4.396;2023-03-30T13:42:16;10.00;;;2.35;;
19828;SDS011;10075;50.924;4.396;2023-03-30T13:44:54;15.02;;;2.60;;
19828;SDS011;10075;50.924;4.396;2023-03-30T13:47:36;14.32;;;2.55;;
19828;SDS011;10075;50.924;4.396;2023-03-30T13:50:14;12.73;;;2.63;;
19828;SDS011;10075;50.924;4.396;2023-03-30T13:52:48;8.15;;;1.90;;
19828;SDS011;10075;50.924;4.396;2023-03-30T13:55:20;16.27;;;3.80;;
19828;SDS011;10075;50.924;4.396;2023-03-30T13:57:53;9.75;;;2.40;;
19828;SDS011;10075;50.924;4.396;2023-03-30T14:00:28;4.97;;;1.45;;
19828;SDS011;10075;50.924;4.396;2023-03-30T14:06:00;11.02;;;2.47;;
19828;SDS011;10075;50.924;4.396;2023-03-30T14:08:30;12.13;;;2.45;;
19828;SDS011;10075;50.924;4.396;2023-03-30T14:11:01;12.13;;;2.72;;
19828;SDS011;10075;50.924;4.396;2023-03-30T14:13:31;16.85;;;3.25;;
19828;SDS011;10075;50.924;4.396;2023-03-30T14:15:59;12.07;;;2.65;;
19828;SDS011;10075;50.924;4.396;2023-03-30T14:18:28;8.90;;;1.73;;
19828;SDS011;10075;50.924;4.396;2023-03-30T14:20:56;12.85;;;2.75;;
19828;SDS011;10075;50.924;4.396;2023-03-30T14:23:27;16.02;;;3.38;;
19828;SDS011;10075;50.924;4.396;2023-03-30T14:25:59;18.70;;;3.15;;
19828;SDS011;10075;50.924;4.396;2023-03-30T14:28:29;9.93;;;2.55;;
19828;SDS011;10075;50.924;4.396;2023-03-30T14:31:00;8.95;;;1.98;;
19828;SDS011;10075;50.924;4.396;2023-03-30T14:33:36;14.25;;;2.28;;
19828;SDS011;10075;50.924;4.396;2023-03-30T14:36:05;12.98;;;2.58;;
19828;SDS011;10075;50.924;4.396;2023-03-30T14:38:36;13.35;;;2.30;;
19828;SDS011;10075;50.924;4.396;2023-03-30T14:41:06;14.50;;;2.45;;
19828;SDS011;10075;50.924;4.396;2023-03-30T14:43:36;12.32;;;2.78;;
19828;SDS011;10075;50.924;4.396;2023-03-30T14:46:06;11.13;;;2.45;;
19828;SDS011;10075;50.924;4.396;2023-03-30T14:48:36;11.10;;;1.83;;
19828;SDS011;10075;50.924;4.396;2023-03-30T14:51:16;14.77;;;2.72;;
19828;SDS011;10075;50.924;4.396;2023-03-30T14:53:47;7.95;;;2.25;;
19828;SDS011;10075;50.924;4.396;2023-03-30T14:56:17;6.43;;;1.85;;
19828;SDS011;10075;50.924;4.396;2023-03-30T14:58:45;9.30;;;1.90;;
19828;SDS011;10075;50.924;4.396;2023-03-30T15:01:15;12.00;;;2.22;;
19828;SDS011;10075;50.924;4.396;2023-03-30T15:03:45;12.38;;;2.20;;
19828;SDS011;10075;50.924;4.396;2023-03-30T15:06:15;9.57;;;2.10;;
19828;SDS011;10075;50.924;4.396;2023-03-30T15:08:47;7.35;;;1.60;;
19828;SDS011;10075;50.924;4.396;2023-03-30T15:11:15;7.80;;;2.05;;
19828;SDS011;10075;50.924;4.396;2023-03-30T15:13:48;5.25;;;1.90;;
19828;SDS011;10075;50.924;4.396;2023-03-30T15:16:18;8.38;;;1.67;;
19828;SDS011;10075;50.924;4.396;2023-03-30T15:18:48;4.78;;;1.65;;
19828;SDS011;10075;50.924;4.396;2023-03-30T15:21:17;7.25;;;1.48;;
19828;SDS011;10075;50.924;4.396;2023-03-30T15:23:46;5.80;;;1.40;;
19828;SDS011;10075;50.924;4.396;2023-03-30T15:26:14;3.72;;;1.20;;
19828;SDS011;10075;50.924;4.396;2023-03-30T15:28:44;6.25;;;1.50;;